sensor_id;sensor_type;location;lat;lon;timestamp;pressure;altitude;pressure_sealevel;temperature;humidity
43804;BME280;29430;52.924;-2.388;2023-11-21T00:02:04;99334.94;;;9.45;100.00
43804;BME280;29430;52.924;-2.388;2023-11-21T00:06:56;99336.19;;;9.43;100.00
43804;BME280;29430;52.924;-2.388;2023-11-21T00:11:48;99339.75;;;9.37;100.00
43804;BME280;29430;52.924;-2.388;2023-11-21T00:16:40;99339.75;;;9.37;100.00
43804;BME280;29430;52.924;-2.388;2023-11-21T00:21:31;99351.19;;;9.39;100.00
43804;BME280;29430;52.924;-2.388;2023-11-21T00:26:23;99360.59;;;9.36;100.00
43804;BME280;29430;52.924;-2.388;2023-11-21T00:31:16;99368.09;;;9.34;100.00
43804;BME280;29430;52.924;-2.388;2023-11-21T00:36:08;99375.16;;;9.35;100.00
43804;BME280;29430;52.924;-2.388;2023-11-21T00:41:01;99390.38;;;9.29;100.00
43804;BME280;29430;52.924;-2.388;2023-11-21T00:45:52;99388.75;;;9.28;100.00
43804;BME280;29430;52.924;-2.388;2023-11-21T00:50:44;99402.09;;;9.23;100.00
43804;BME280;29430;52.924;-2.388;2023-11-21T00:55:37;99418.97;;;9.19;100.00
43804;BME280;29430;52.924;-2.388;2023-11-21T01:00:32;99421.47;;;9.20;100.00
43804;BME280;29430;52.924;-2.388;2023-11-21T01:05:24;99429.19;;;9.17;100.00
43804;BME280;29430;52.924;-2.388;2023-11-21T01:10:16;99441.25;;;9.14;100.00
43804;BME280;29430;52.924;-2.388;2023-11-21T01:15:09;99451.31;;;9.07;100.00
43804;BME280;29430;52.924;-2.388;2023-11-21T01:20:04;99475.88;;;8.99;100.00
43804;BME280;29430;52.924;-2.388;2023-11-21T01:25:04;99495.88;;;8.98;100.00
43804;BME280;29430;52.924;-2.388;2023-11-21T01:29:58;99490.25;;;8.92;100.00
43804;BME280;29430;52.924;-2.388;2023-11-21T01:34:51;99496.72;;;8.91;100.00
43804;BME280;29430;52.924;-2.388;2023-11-21T01:39:43;99502.13;;;8.91;100.00
43804;BME280;29430;52.924;-2.388;2023-11-21T01:44:36;99513.78;;;8.85;100.00
43804;BME280;29430;52.924;-2.388;2023-11-21T01:49:27;99520.03;;;8.86;100.00
43804;BME280;29430;52.924;-2.388;2023-11-21T01:54:20;99513.38;;;8.82;100.00
43804;BME280;29430;52.924;-2.388;2023-11-21T01:59:15;99527.94;;;8.81;100.00
43804;BME280;29430;52.924;-2.388;2023-11-21T02:04:10;99533.56;;;8.79;100.00
43804;BME280;29430;52.924;-2.388;2023-11-21T02:09:02;99535.84;;;8.75;100.00
43804;BME280;29430;52.924;-2.388;2023-11-21T02:13:58;99534.19;;;8.68;100.00
43804;BME280;29430;52.924;-2.388;2023-11-21T02:18:51;99544.41;;;8.66;100.00
43804;BME280;29430;52.924;-2.388;2023-11-21T02:23:43;99547.31;;;8.64;100.00
43804;BME280;29430;52.924;-2.388;2023-11-21T02:28:36;99558.34;;;8.63;100.00
43804;BME280;29430;52.924;-2.388;2023-11-21T02:33:30;99563.94;;;8.61;100.00
43804;BME280;29430;52.924;-2.388;2023-11-21T02:38:25;99558.97;;;8.58;100.00
43804;BME280;29430;52.924;-2.388;2023-11-21T02:43:17;99569.16;;;8.56;100.00
43804;BME280;29430;52.924;-2.388;2023-11-21T02:48:09;99570.81;;;8.50;100.00
43804;BME280;29430;52.924;-2.388;2023-11-21T02:53:01;99583.91;;;8.47;100.00
43804;BME280;29430;52.924;-2.388;2023-11-21T02:57:53;99588.69;;;8.45;100.00
43804;BME280;29430;52.924;-2.388;2023-11-21T03:02:45;99605.06;;;8.43;100.00
43804;BME280;29430;52.924;-2.388;2023-11-21T03:07:39;99614.88;;;8.44;100.00
43804;BME280;29430;52.924;-2.388;2023-11-21T03:12:32;99614.88;;;8.44;100.00
43804;BME280;29430;52.924;-2.388;2023-11-21T03:17:23;99621.28;;;8.43;100.00
43804;BME280;29430;52.924;-2.388;2023-11-21T03:22:16;99619.00;;;8.40;100.00
43804;BME280;29430;52.924;-2.388;2023-11-21T03:27:07;99625.25;;;8.40;100.00
43804;BME280;29430;52.924;-2.388;2023-11-21T03:31:59;99631.06;;;8.37;100.00
43804;BME280;29430;52.924;-2.388;2023-11-21T03:36:52;99641.03;;;8.37;100.00
43804;BME280;29430;52.924;-2.388;2023-11-21T03:41:44;99652.25;;;8.34;100.00
43804;BME280;29430;52.924;-2.388;2023-11-21T03:46:36;99656.41;;;8.30;100.00
43804;BME280;29430;52.924;-2.388;2023-11-21T03:51:28;99661.81;;;8.30;100.00
43804;BME280;29430;52.924;-2.388;2023-11-21T03:56:19;99661.16;;;8.28;100.00
43804;BME280;29430;52.924;-2.388;2023-11-21T04:01:20;99662.84;;;8.29;100.00
43804;BME280;29430;52.924;-2.388;2023-11-21T04:06:13;99660.34;;;8.27;100.00
43804;BME280;29430;52.924;-2.388;2023-11-21T04:11:05;99681.56;;;8.23;100.00
43804;BME280;29430;52.924;-2.388;2023-11-21T04:15:56;99689.22;;;8.20;100.00
43804;BME280;29430;52.924;-2.388;2023-11-21T04:20:48;99682.16;;;8.19;100.00
43804;BME280;29430;52.924;-2.388;2023-11-21T04:25:40;99686.09;;;8.16;100.00
43804;BME280;29430;52.924;-2.388;2023-11-21T04:30:32;99696.47;;;8.13;100.00
43804;BME280;29430;52.924;-2.388;2023-11-21T04:35:24;99708.72;;;8.09;100.00
43804;BME280;29430;52.924;-2.388;2023-11-21T04:40:16;99725.75;;;8.09;100.00
43804;BME280;29430;52.924;-2.388;2023-11-21T04:45:08;99732.41;;;8.06;100.00
43804;BME280;29430;52.924;-2.388;2023-11-21T04:50:02;99735.50;;;8.03;100.00
43804;BME280;29430;52.924;-2.388;2023-11-21T04:54:54;99742.34;;;7.99;100.00
43804;BME280;29430;52.924;-2.388;2023-11-21T04:59:48;99758.13;;;7.96;100.00
43804;BME280;29430;52.924;-2.388;2023-11-21T05:04:40;99757.66;;;7.92;100.00
43804;BME280;29430;52.924;-2.388;2023-11-21T05:09:34;99755.81;;;7.93;100.00
43804;BME280;29430;52.924;-2.388;2023-11-21T05:14:26;99767.63;;;7.92;100.00
43804;BME280;29430;52.924;-2.388;2023-11-21T05:19:18;99757.22;;;7.88;100.00
43804;BME280;29430;52.924;-2.388;2023-11-21T05:24:10;99770.13;;;7.93;100.00
43804;BME280;29430;52.924;-2.388;2023-11-21T05:29:02;99773.88;;;7.92;100.00
43804;BME280;29430;52.924;-2.388;2023-11-21T05:33:54;99780.94;;;7.93;100.00
43804;BME280;29430;52.924;-2.388;2023-11-21T05:38:45;99789.63;;;7.88;100.00
43804;BME280;29430;52.924;-2.388;2023-11-21T05:43:37;99801.47;;;7.87;100.00
43804;BME280;29430;52.924;-2.388;2023-11-21T05:48:29;99801.84;;;7.84;100.00
43804;BME280;29430;52.924;-2.388;2023-11-21T05:53:21;99819.13;;;7.83;100.00
43804;BME280;29430;52.924;-2.388;2023-11-21T05:58:13;99833.63;;;7.82;100.00
43804;BME280;29430;52.924;-2.388;2023-11-21T06:03:05;99842.56;;;7.83;100.00
43804;BME280;29430;52.924;-2.388;2023-11-21T06:07:57;99847.34;;;7.81;100.00
43804;BME280;29430;52.924;-2.388;2023-11-21T06:12:52;99856.25;;;7.81;100.00
43804;BME280;29430;52.924;-2.388;2023-11-21T06:17:45;99860.00;;;7.80;100.00
43804;BME280;29430;52.924;-2.388;2023-11-21T06:22:42;99855.81;;;7.78;100.00
43804;BME280;29430;52.924;-2.388;2023-11-21T06:27:38;99861.44;;;7.76;100.00
43804;BME280;29430;52.924;-2.388;2023-11-21T06:32:30;99874.94;;;7.76;100.00
43804;BME280;29430;52.924;-2.388;2023-11-21T06:37:22;99890.50;;;7.74;100.00
43804;BME280;29430;52.924;-2.388;2023-11-21T06:42:14;99882.78;;;7.71;100.00
43804;BME280;29430;52.924;-2.388;2023-11-21T06:47:07;99881.09;;;7.70;100.00
43804;BME280;29430;52.924;-2.388;2023-11-21T06:51:59;99885.22;;;7.66;100.00
43804;BME280;29430;52.924;-2.388;2023-11-21T06:56:51;99891.66;;;7.65;100.00
43804;BME280;29430;52.924;-2.388;2023-11-21T07:01:44;99899.09;;;7.63;100.00
43804;BME280;29430;52.924;-2.388;2023-11-21T07:06:36;99918.38;;;7.60;100.00
43804;BME280;29430;52.924;-2.388;2023-11-21T07:11:29;99920.06;;;7.61;100.00
43804;BME280;29430;52.924;-2.388;2023-11-21T07:16:20;99937.28;;;7.60;100.00
43804;BME280;29430;52.924;-2.388;2023-11-21T07:21:13;99958.03;;;7.59;100.00
43804;BME280;29430;52.924;-2.388;2023-11-21T07:26:06;99958.88;;;7.60;100.00
43804;BME280;29430;52.924;-2.388;2023-11-21T07:31:01;99957.22;;;7.59;100.00
43804;BME280;29430;52.924;-2.388;2023-11-21T07:35:52;99967.63;;;7.62;100.00
43804;BME280;29430;52.924;-2.388;2023-11-21T07:40:44;99985.47;;;7.63;100.00
43804;BME280;29430;52.924;-2.388;2023-11-21T07:45:36;99994.06;;;7.66;100.00
43804;BME280;29430;52.924;-2.388;2023-11-21T07:50:28;100009.19;;;7.67;100.00
43804;BME280;29430;52.924;-2.388;2023-11-21T07:55:20;100028.56;;;7.71;100.00
43804;BME280;29430;52.924;-2.388;2023-11-21T08:00:13;100034.63;;;7.73;100.00
43804;BME280;29430;52.924;-2.388;2023-11-21T08:05:06;100049.78;;;7.74;100.00
43804;BME280;29430;52.924;-2.388;2023-11-21T08:10:06;100040.00;;;7.73;100.00
43804;BME280;29430;52.924;-2.388;2023-11-21T08:14:58;100051.19;;;7.70;100.00
43804;BME280;29430;52.924;-2.388;2023-11-21T08:19:50;100075.13;;;7.73;100.00
43804;BME280;29430;52.924;-2.388;2023-11-21T08:24:43;100067.41;;;7.70;100.00
43804;BME280;29430;52.924;-2.388;2023-11-21T08:29:35;100093.19;;;7.73;100.00
43804;BME280;29430;52.924;-2.388;2023-11-21T08:34:27;100098.22;;;7.76;100.00
43804;BME280;29430;52.924;-2.388;2023-11-21T08:39:20;100107.78;;;7.78;100.00
43804;BME280;29430;52.924;-2.388;2023-11-21T08:44:11;100103.41;;;7.77;100.00
43804;BME280;29430;52.924;-2.388;2023-11-21T08:49:03;100123.97;;;7.78;100.00
43804;BME280;29430;52.924;-2.388;2023-11-21T08:53:55;100130.22;;;7.79;100.00
43804;BME280;29430;52.924;-2.388;2023-11-21T08:58:51;100146.06;;;7.82;100.00
43804;BME280;29430;52.924;-2.388;2023-11-21T09:03:44;100150.41;;;7.83;100.00
43804;BME280;29430;52.924;-2.388;2023-11-21T09:08:36;100158.31;;;7.84;100.00
43804;BME280;29430;52.924;-2.388;2023-11-21T09:13:27;100159.38;;;7.83;100.00
43804;BME280;29430;52.924;-2.388;2023-11-21T09:18:21;100166.44;;;7.84;100.00
43804;BME280;29430;52.924;-2.388;2023-11-21T09:23:13;100167.28;;;7.85;100.00
43804;BME280;29430;52.924;-2.388;2023-11-21T09:28:05;100178.53;;;7.88;100.00
43804;BME280;29430;52.924;-2.388;2023-11-21T09:32:59;100187.28;;;7.91;100.00
43804;BME280;29430;52.924;-2.388;2023-11-21T09:37:52;100181.31;;;7.95;100.00
43804;BME280;29430;52.924;-2.388;2023-11-21T09:42:52;100186.91;;;7.94;100.00
43804;BME280;29430;52.924;-2.388;2023-11-21T09:47:46;100187.19;;;7.99;100.00
43804;BME280;29430;52.924;-2.388;2023-11-21T09:58:10;100218.00;;;8.04;100.00
43804;BME280;29430;52.924;-2.388;2023-11-21T10:03:03;100231.31;;;8.06;100.00
43804;BME280;29430;52.924;-2.388;2023-11-21T10:07:56;100239.78;;;8.03;100.00
43804;BME280;29430;52.924;-2.388;2023-11-21T10:12:50;100239.78;;;8.03;100.00
43804;BME280;29430;52.924;-2.388;2023-11-21T10:17:45;100245.19;;;8.03;100.00
43804;BME280;29430;52.924;-2.388;2023-11-21T10:22:42;100258.13;;;8.07;100.00
43804;BME280;29430;52.924;-2.388;2023-11-21T10:27:35;100268.19;;;8.14;100.00
43804;BME280;29430;52.924;-2.388;2023-11-21T10:32:28;100255.53;;;8.14;100.00
43804;BME280;29430;52.924;-2.388;2023-11-21T10:37:23;100261.97;;;8.13;100.00
43804;BME280;29430;52.924;-2.388;2023-11-21T10:42:17;100244.44;;;8.09;100.00
43804;BME280;29430;52.924;-2.388;2023-11-21T10:47:09;100269.69;;;8.16;100.00
43804;BME280;29430;52.924;-2.388;2023-11-21T10:52:03;100279.28;;;8.19;100.00
43804;BME280;29430;52.924;-2.388;2023-11-21T10:57:00;100282.44;;;8.22;100.00
43804;BME280;29430;52.924;-2.388;2023-11-21T11:01:53;100291.19;;;8.24;100.00
43804;BME280;29430;52.924;-2.388;2023-11-21T11:06:51;100293.53;;;8.28;100.00
43804;BME280;29430;52.924;-2.388;2023-11-21T11:11:46;100295.66;;;8.32;100.00
43804;BME280;29430;52.924;-2.388;2023-11-21T11:16:41;100288.03;;;8.36;100.00
43804;BME280;29430;52.924;-2.388;2023-11-21T11:21:46;100284.75;;;8.40;100.00
43804;BME280;29430;52.924;-2.388;2023-11-21T11:26:58;100279.16;;;8.42;100.00
43804;BME280;29430;52.924;-2.388;2023-11-21T11:37:03;100290.56;;;8.74;100.00
43804;BME280;29430;52.924;-2.388;2023-11-21T11:41:57;100287.03;;;9.17;100.00
43804;BME280;29430;52.924;-2.388;2023-11-21T11:46:52;100301.88;;;9.49;100.00
43804;BME280;29430;52.924;-2.388;2023-11-21T11:51:44;100306.13;;;9.58;100.00
43804;BME280;29430;52.924;-2.388;2023-11-21T11:56:36;100305.47;;;9.84;99.52
43804;BME280;29430;52.924;-2.388;2023-11-21T12:01:32;100303.44;;;9.93;94.98
43804;BME280;29430;52.924;-2.388;2023-11-21T12:06:33;100315.22;;;9.79;95.81
43804;BME280;29430;52.924;-2.388;2023-11-21T12:11:33;100308.94;;;9.72;94.29
43804;BME280;29430;52.924;-2.388;2023-11-21T12:16:26;100313.59;;;9.84;95.34
43804;BME280;29430;52.924;-2.388;2023-11-21T12:21:19;100334.41;;;10.12;93.50
43804;BME280;29430;52.924;-2.388;2023-11-21T12:26:12;100330.09;;;10.25;91.11
43804;BME280;29430;52.924;-2.388;2023-11-21T12:31:04;100324.47;;;10.26;92.47
43804;BME280;29430;52.924;-2.388;2023-11-21T12:36:12;100333.84;;;10.24;88.59
43804;BME280;29430;52.924;-2.388;2023-11-21T12:41:04;100350.91;;;10.17;90.03
43804;BME280;29430;52.924;-2.388;2023-11-21T12:46:13;100352.09;;;10.08;88.00
43804;BME280;29430;52.924;-2.388;2023-11-21T12:51:06;100345.13;;;9.92;88.56
43804;BME280;29430;52.924;-2.388;2023-11-21T12:55:58;100337.28;;;9.76;87.24
43804;BME280;29430;52.924;-2.388;2023-11-21T13:00:50;100348.16;;;9.54;88.34
43804;BME280;29430;52.924;-2.388;2023-11-21T13:05:45;100361.47;;;9.49;89.26
43804;BME280;29430;52.924;-2.388;2023-11-21T13:10:41;100364.28;;;9.62;85.94
43804;BME280;29430;52.924;-2.388;2023-11-21T13:15:48;100386.94;;;9.55;84.91
43804;BME280;29430;52.924;-2.388;2023-11-21T13:20:40;100401.81;;;9.65;84.61
43804;BME280;29430;52.924;-2.388;2023-11-21T13:25:32;100393.75;;;9.72;84.41
43804;BME280;29430;52.924;-2.388;2023-11-21T13:30:25;100406.94;;;9.82;84.85
43804;BME280;29430;52.924;-2.388;2023-11-21T13:35:25;100405.09;;;9.82;86.28
43804;BME280;29430;52.924;-2.388;2023-11-21T13:40:24;100423.59;;;9.79;85.40
43804;BME280;29430;52.924;-2.388;2023-11-21T13:45:18;100418.38;;;9.77;86.75
43804;BME280;29430;52.924;-2.388;2023-11-21T13:50:12;100398.34;;;9.72;84.01
43804;BME280;29430;52.924;-2.388;2023-11-21T13:55:10;100399.31;;;9.64;84.24
43804;BME280;29430;52.924;-2.388;2023-11-21T14:00:07;100400.72;;;9.60;85.59
43804;BME280;29430;52.924;-2.388;2023-11-21T14:05:02;100417.56;;;9.55;85.38
43804;BME280;29430;52.924;-2.388;2023-11-21T14:10:01;100399.63;;;9.54;85.81
43804;BME280;29430;52.924;-2.388;2023-11-21T14:14:53;100383.50;;;9.46;84.77
43804;BME280;29430;52.924;-2.388;2023-11-21T14:19:46;100399.50;;;9.41;85.87
43804;BME280;29430;52.924;-2.388;2023-11-21T14:24:39;100414.00;;;9.33;88.17
43804;BME280;29430;52.924;-2.388;2023-11-21T14:29:37;100420.00;;;9.28;88.81
43804;BME280;29430;52.924;-2.388;2023-11-21T14:34:31;100434.94;;;9.24;89.79
43804;BME280;29430;52.924;-2.388;2023-11-21T14:39:22;100433.56;;;9.13;90.22
43804;BME280;29430;52.924;-2.388;2023-11-21T14:44:15;100451.13;;;9.03;90.95
43804;BME280;29430;52.924;-2.388;2023-11-21T14:49:08;100415.88;;;8.96;92.30
43804;BME280;29430;52.924;-2.388;2023-11-21T14:54:20;100434.28;;;8.86;92.71
43804;BME280;29430;52.924;-2.388;2023-11-21T14:59:26;100456.22;;;8.76;93.92
43804;BME280;29430;52.924;-2.388;2023-11-21T15:04:19;100477.09;;;8.67;94.46
43804;BME280;29430;52.924;-2.388;2023-11-21T15:09:27;100468.53;;;8.64;94.96
43804;BME280;29430;52.924;-2.388;2023-11-21T15:14:25;100472.44;;;8.61;95.63
43804;BME280;29430;52.924;-2.388;2023-11-21T15:19:22;100477.38;;;8.57;96.67
43804;BME280;29430;52.924;-2.388;2023-11-21T15:24:17;100487.16;;;8.58;97.37
43804;BME280;29430;52.924;-2.388;2023-11-21T15:29:09;100489.03;;;8.58;97.73
43804;BME280;29430;52.924;-2.388;2023-11-21T15:34:02;100492.56;;;8.58;98.15
43804;BME280;29430;52.924;-2.388;2023-11-21T15:38:56;100495.94;;;8.60;98.73
43804;BME280;29430;52.924;-2.388;2023-11-21T15:43:48;100470.75;;;8.60;98.21
43804;BME280;29430;52.924;-2.388;2023-11-21T15:48:41;100493.31;;;8.52;97.36
43804;BME280;29430;52.924;-2.388;2023-11-21T15:53:40;100502.16;;;8.46;98.45
43804;BME280;29430;52.924;-2.388;2023-11-21T15:58:32;100504.03;;;8.46;99.08
43804;BME280;29430;52.924;-2.388;2023-11-21T16:03:25;100517.06;;;8.42;99.26
43804;BME280;29430;52.924;-2.388;2023-11-21T16:08:17;100528.97;;;8.33;99.34
43804;BME280;29430;52.924;-2.388;2023-11-21T16:13:09;100518.88;;;8.27;99.38
43804;BME280;29430;52.924;-2.388;2023-11-21T16:18:04;100511.97;;;8.24;100.00
43804;BME280;29430;52.924;-2.388;2023-11-21T16:22:56;100534.31;;;8.18;100.00
43804;BME280;29430;52.924;-2.388;2023-11-21T16:27:48;100560.88;;;8.14;100.00
43804;BME280;29430;52.924;-2.388;2023-11-21T16:32:40;100568.66;;;8.09;100.00
43804;BME280;29430;52.924;-2.388;2023-11-21T16:37:32;100559.53;;;8.10;100.00
43804;BME280;29430;52.924;-2.388;2023-11-21T16:42:25;100569.88;;;8.06;100.00
43804;BME280;29430;52.924;-2.388;2023-11-21T16:47:19;100567.91;;;8.00;100.00
43804;BME280;29430;52.924;-2.388;2023-11-21T16:52:12;100550.53;;;7.95;100.00
43804;BME280;29430;52.924;-2.388;2023-11-21T16:57:04;100556.19;;;7.85;100.00
43804;BME280;29430;52.924;-2.388;2023-11-21T17:01:55;100565.66;;;7.81;100.00
43804;BME280;29430;52.924;-2.388;2023-11-21T17:06:48;100574.28;;;7.76;100.00
43804;BME280;29430;52.924;-2.388;2023-11-21T17:11:40;100564.84;;;7.72;100.00
43804;BME280;29430;52.924;-2.388;2023-11-21T17:16:32;100573.50;;;7.67;100.00
43804;BME280;29430;52.924;-2.388;2023-11-21T17:21:24;100580.81;;;7.59;100.00
43804;BME280;29430;52.924;-2.388;2023-11-21T17:26:23;100592.97;;;7.55;100.00
43804;BME280;29430;52.924;-2.388;2023-11-21T17:31:15;100589.97;;;7.49;100.00
43804;BME280;29430;52.924;-2.388;2023-11-21T17:36:07;100598.59;;;7.45;100.00
43804;BME280;29430;52.924;-2.388;2023-11-21T17:41:01;100587.63;;;7.38;100.00
43804;BME280;29430;52.924;-2.388;2023-11-21T17:45:53;100594.72;;;7.39;100.00
43804;BME280;29430;52.924;-2.388;2023-11-21T17:50:44;100598.44;;;7.38;100.00
43804;BME280;29430;52.924;-2.388;2023-11-21T17:55:37;100610.09;;;7.39;100.00
43804;BME280;29430;52.924;-2.388;2023-11-21T18:00:29;100618.72;;;7.34;100.00
43804;BME280;29430;52.924;-2.388;2023-11-21T18:05:21;100606.56;;;7.30;100.00
43804;BME280;29430;52.924;-2.388;2023-11-21T18:10:15;100625.13;;;7.33;100.00
43804;BME280;29430;52.924;-2.388;2023-11-21T18:15:07;100626.97;;;7.32;100.00
43804;BME280;29430;52.924;-2.388;2023-11-21T18:19:59;100628.00;;;7.31;100.00
43804;BME280;29430;52.924;-2.388;2023-11-21T18:24:51;100638.63;;;7.33;100.00
43804;BME280;29430;52.924;-2.388;2023-11-21T18:29:48;100639.78;;;7.30;100.00
43804;BME280;29430;52.924;-2.388;2023-11-21T18:34:40;100649.09;;;7.28;100.00
43804;BME280;29430;52.924;-2.388;2023-11-21T18:39:32;100642.31;;;7.32;100.00
43804;BME280;29430;52.924;-2.388;2023-11-21T18:44:25;100638.63;;;7.33;100.00
43804;BME280;29430;52.924;-2.388;2023-11-21T18:49:18;100640.47;;;7.32;100.00
43804;BME280;29430;52.924;-2.388;2023-11-21T18:54:10;100641.47;;;7.31;100.00
43804;BME280;29430;52.924;-2.388;2023-11-21T18:59:01;100652.28;;;7.31;100.00
43804;BME280;29430;52.924;-2.388;2023-11-21T19:03:54;100644.19;;;7.31;100.00
43804;BME280;29430;52.924;-2.388;2023-11-21T19:08:47;100641.66;;;7.30;100.00
43804;BME280;29430;52.924;-2.388;2023-11-21T19:13:38;100650.09;;;7.27;100.00
43804;BME280;29430;52.924;-2.388;2023-11-21T19:18:30;100668.31;;;7.25;100.00
43804;BME280;29430;52.924;-2.388;2023-11-21T19:23:22;100683.81;;;7.23;100.00
43804;BME280;29430;52.924;-2.388;2023-11-21T19:28:15;100686.53;;;7.23;100.00
43804;BME280;29430;52.924;-2.388;2023-11-21T19:33:08;100698.00;;;7.25;100.00
43804;BME280;29430;52.924;-2.388;2023-11-21T19:38:00;100699.66;;;7.26;100.00
43804;BME280;29430;52.924;-2.388;2023-11-21T19:42:52;100693.63;;;7.24;100.00
43804;BME280;29430;52.924;-2.388;2023-11-21T19:47:44;100689.75;;;7.18;100.00
43804;BME280;29430;52.924;-2.388;2023-11-21T19:52:39;100689.59;;;7.11;100.00
43804;BME280;29430;52.924;-2.388;2023-11-21T19:57:31;100687.91;;;7.02;100.00
43804;BME280;29430;52.924;-2.388;2023-11-21T20:02:24;100693.16;;;6.95;100.00
43804;BME280;29430;52.924;-2.388;2023-11-21T20:07:18;100691.13;;;6.81;100.00
43804;BME280;29430;52.924;-2.388;2023-11-21T20:12:12;100701.75;;;6.74;100.00
43804;BME280;29430;52.924;-2.388;2023-11-21T20:17:04;100701.25;;;6.71;100.00
43804;BME280;29430;52.924;-2.388;2023-11-21T20:21:56;100692.97;;;6.64;100.00
43804;BME280;29430;52.924;-2.388;2023-11-21T20:26:48;100721.63;;;6.57;100.00
43804;BME280;29430;52.924;-2.388;2023-11-21T20:31:40;100702.91;;;6.47;100.00
43804;BME280;29430;52.924;-2.388;2023-11-21T20:36:34;100699.88;;;6.42;100.00
43804;BME280;29430;52.924;-2.388;2023-11-21T20:41:25;100693.44;;;6.35;100.00
43804;BME280;29430;52.924;-2.388;2023-11-21T20:46:19;100703.41;;;6.34;100.00
43804;BME280;29430;52.924;-2.388;2023-11-21T20:51:12;100688.91;;;6.27;100.00
43804;BME280;29430;52.924;-2.388;2023-11-21T20:56:03;100691.91;;;6.16;100.00
43804;BME280;29430;52.924;-2.388;2023-11-21T21:00:55;100705.03;;;6.11;100.00
43804;BME280;29430;52.924;-2.388;2023-11-21T21:05:47;100715.44;;;6.05;100.00
43804;BME280;29430;52.924;-2.388;2023-11-21T21:10:39;100712.41;;;6.00;100.00
43804;BME280;29430;52.924;-2.388;2023-11-21T21:15:32;100705.63;;;5.96;100.00
43804;BME280;29430;52.924;-2.388;2023-11-21T21:20:24;100697.53;;;5.96;100.00
43804;BME280;29430;52.924;-2.388;2023-11-21T21:25:16;100696.03;;;5.94;100.00
43804;BME280;29430;52.924;-2.388;2023-11-21T21:30:08;100698.34;;;5.88;100.00
43804;BME280;29430;52.924;-2.388;2023-11-21T21:35:01;100696.47;;;5.81;100.00
43804;BME280;29430;52.924;-2.388;2023-11-21T21:39:56;100701.34;;;5.77;100.00
43804;BME280;29430;52.924;-2.388;2023-11-21T21:44:50;100701.19;;;5.79;100.00
43804;BME280;29430;52.924;-2.388;2023-11-21T21:49:41;100695.97;;;5.77;100.00
43804;BME280;29430;52.924;-2.388;2023-11-21T21:54:33;100714.94;;;5.67;100.00
43804;BME280;29430;52.924;-2.388;2023-11-21T21:59:25;100723.34;;;5.64;100.00
43804;BME280;29430;52.924;-2.388;2023-11-21T22:04:18;100719.47;;;5.67;100.00
43804;BME280;29430;52.924;-2.388;2023-11-21T22:09:10;100706.88;;;5.67;100.00
43804;BME280;29430;52.924;-2.388;2023-11-21T22:14:03;100697.25;;;5.65;100.00
43804;BME280;29430;52.924;-2.388;2023-11-21T22:18:55;100688.50;;;5.63;100.00
43804;BME280;29430;52.924;-2.388;2023-11-21T22:23:47;100687.28;;;5.57;100.00
43804;BME280;29430;52.924;-2.388;2023-11-21T22:28:39;100678.88;;;5.52;100.00
43804;BME280;29430;52.924;-2.388;2023-11-21T22:33:30;100698.22;;;5.55;100.00
43804;BME280;29430;52.924;-2.388;2023-11-21T22:38:22;100701.59;;;5.57;100.00
43804;BME280;29430;52.924;-2.388;2023-11-21T22:43:14;100702.97;;;5.62;100.00
43804;BME280;29430;52.924;-2.388;2023-11-21T22:48:08;100712.56;;;5.64;100.00
43804;BME280;29430;52.924;-2.388;2023-11-21T22:53:00;100704.69;;;5.71;100.00
43804;BME280;29430;52.924;-2.388;2023-11-21T22:57:53;100705.19;;;5.74;100.00
43804;BME280;29430;52.924;-2.388;2023-11-21T23:02:45;100712.94;;;5.78;100.00
43804;BME280;29430;52.924;-2.388;2023-11-21T23:07:37;100712.94;;;5.78;100.00
43804;BME280;29430;52.924;-2.388;2023-11-21T23:12:29;100709.09;;;5.80;100.00
43804;BME280;29430;52.924;-2.388;2023-11-21T23:17:21;100711.47;;;5.83;100.00
43804;BME280;29430;52.924;-2.388;2023-11-21T23:22:13;100717.53;;;5.85;100.00
43804;BME280;29430;52.924;-2.388;2023-11-21T23:27:06;100710.16;;;5.87;100.00
43804;BME280;29430;52.924;-2.388;2023-11-21T23:31:57;100719.88;;;5.88;100.00
43804;BME280;29430;52.924;-2.388;2023-11-21T23:36:51;100707.28;;;5.89;100.00
43804;BME280;29430;52.924;-2.388;2023-11-21T23:41:43;100710.66;;;5.91;100.00
43804;BME280;29430;52.924;-2.388;2023-11-21T23:46:35;100708.78;;;5.91;100.00
43804;BME280;29430;52.924;-2.388;2023-11-21T23:51:27;100707.81;;;5.92;100.00
43804;BME280;29430;52.924;-2.388;2023-11-21T23:56:19;100709.81;;;5.90;100.00
